Time;durP1;ratioP1;P1;durP2;ratioP2;P2;SDS_P1;SDS_P2;PMS_P1;PMS_P2;Temp;Humidity;BMP_temperature;BMP_pressure;BME280_temperature;BME280_humidity;BME280_pressure;Samples;Min_cycle;Max_cycle;Signal;HPM_P1;HPM_P2
2022/09/09 00:02:20;;;;;;;2.73;1.70;;;18.20;42.20;;;;;;10545187;28;20262;-74
2022/09/09 00:07:34;;;;;;;1.70;1.60;;;18.20;42.50;;;;;;10543657;28;20281;-74
2022/09/09 00:12:49;;;;;;;2.27;1.50;;;18.10;42.10;;;;;;10544398;28;20220;-74
2022/09/09 00:17:57;;;;;;;3.30;1.70;;;18.10;42.30;;;;;;10542525;28;20232;-74
2022/09/09 00:23:06;;;;;;;3.63;1.73;;;18.10;42.10;;;;;;10542762;28;20266;-74
2022/09/09 00:28:18;;;;;;;1.60;1.50;;;18.10;42.20;;;;;;10543441;28;20227;-74
2022/09/09 00:33:25;;;;;;;1.50;1.40;;;18.10;42.30;;;;;;10535554;28;20248;-74
2022/09/09 00:38:33;;;;;;;2.90;1.30;;;18.10;42.00;;;;;;10542830;28;20227;-73
2022/09/09 00:43:40;;;;;;;2.73;1.70;;;18.10;42.00;;;;;;10541941;28;20223;-74
2022/09/09 00:48:52;;;;;;;1.93;1.50;;;18.00;42.00;;;;;;10540857;28;20231;-74
2022/09/09 00:54:12;;;;;;;2.10;1.80;;;18.00;42.00;;;;;;10542092;28;20240;-74
2022/09/09 00:59:25;;;;;;;2.07;1.60;;;18.00;42.10;;;;;;10541968;28;20224;-73
2022/09/09 01:04:37;;;;;;;4.00;1.60;;;17.90;41.90;;;;;;10538291;28;20253;-74
2022/09/09 01:09:53;;;;;;;2.10;1.90;;;17.80;42.10;;;;;;10542523;28;20232;-74
2022/09/09 01:15:08;;;;;;;2.63;1.40;;;17.70;42.10;;;;;;10541347;28;20365;-74
2022/09/09 01:20:17;;;;;;;4.33;1.53;;;17.60;42.50;;;;;;10541828;28;20759;-73
2022/09/09 01:25:28;;;;;;;1.83;1.70;;;17.60;42.50;;;;;;10540346;28;20238;-74
2022/09/09 01:30:36;;;;;;;1.50;1.40;;;17.60;42.40;;;;;;10540378;28;20284;-73
2022/09/09 01:35:48;;;;;;;2.97;1.63;;;17.50;42.30;;;;;;10540262;28;20281;-74
2022/09/09 01:40:52;;;;;;;3.63;1.73;;;17.40;42.70;;;;;;10539822;28;20228;-74
2022/09/09 01:46:01;;;;;;;2.70;1.80;;;17.40;42.10;;;;;;10538645;28;20300;-75
2022/09/09 01:51:05;;;;;;;2.33;1.40;;;17.40;43.20;;;;;;10527738;28;20232;-74
2022/09/09 01:56:19;;;;;;;2.00;1.80;;;17.40;42.30;;;;;;10540273;28;20251;-74
2022/09/09 02:01:33;;;;;;;3.10;1.80;;;17.30;42.90;;;;;;10539959;28;20714;-74
2022/09/09 02:06:39;;;;;;;4.03;1.80;;;17.30;43.10;;;;;;10539913;28;20325;-74
2022/09/09 02:11:45;;;;;;;1.60;1.50;;;17.30;42.90;;;;;;10539159;28;20470;-74
2022/09/09 02:16:55;;;;;;;1.60;1.50;;;17.30;43.00;;;;;;10538860;28;20258;-74
2022/09/09 02:22:01;;;;;;;1.57;1.47;;;17.30;43.10;;;;;;10537978;28;20585;-74
2022/09/09 02:27:08;;;;;;;1.37;1.27;;;17.30;42.90;;;;;;10537652;28;20231;-74
2022/09/09 02:32:17;;;;;;;3.23;1.53;;;17.30;42.80;;;;;;10537427;28;20235;-74
2022/09/09 02:37:24;;;;;;;4.03;1.80;;;17.30;43.00;;;;;;10538148;28;20235;-74
2022/09/09 02:42:28;;;;;;;1.70;1.60;;;17.30;42.80;;;;;;10536806;28;20223;-73
2022/09/09 02:47:36;;;;;;;1.63;1.53;;;17.30;42.60;;;;;;10537237;28;20224;-74
2022/09/09 02:52:48;;;;;;;1.63;1.50;;;17.30;43.00;;;;;;10537170;28;20235;-74
2022/09/09 02:57:53;;;;;;;1.70;1.60;;;17.30;42.80;;;;;;10537806;28;20914;-74
2022/09/09 03:02:58;;;;;;;2.30;1.40;;;17.20;42.60;;;;;;10537813;28;20227;-74
2022/09/09 03:08:02;;;;;;;1.73;1.20;;;17.20;42.60;;;;;;10537875;28;20219;-74
2022/09/09 03:13:05;;;;;;;2.53;1.60;;;17.20;42.60;;;;;;10537207;28;20228;-73
2022/09/09 03:18:09;;;;;;;1.60;1.50;;;17.20;42.70;;;;;;10538519;28;20227;-74
2022/09/09 03:23:13;;;;;;;2.70;1.50;;;17.10;42.60;;;;;;10537530;28;20232;-74
2022/09/09 03:28:18;;;;;;;1.70;1.60;;;17.10;42.50;;;;;;10538157;28;20228;-74
2022/09/09 03:33:22;;;;;;;1.40;1.30;;;17.10;42.60;;;;;;10537181;28;20669;-74
2022/09/09 03:38:26;;;;;;;1.63;1.57;;;17.10;42.80;;;;;;10537532;28;20231;-73
2022/09/09 03:43:30;;;;;;;2.10;1.50;;;17.10;42.60;;;;;;10537540;28;20598;-74
2022/09/09 03:48:34;;;;;;;1.97;1.30;;;17.10;42.80;;;;;;10553669;28;20226;-74
2022/09/09 03:53:38;;;;;;;2.43;1.33;;;17.10;42.90;;;;;;10583407;28;20253;-74
2022/09/09 03:58:41;;;;;;;1.73;1.33;;;17.10;42.80;;;;;;10612990;27;20225;-74
2022/09/09 04:03:46;;;;;;;3.83;1.30;;;17.00;42.70;;;;;;10630663;27;20241;-74
2022/09/09 04:08:49;;;;;;;1.30;1.20;;;17.00;42.80;;;;;;10629783;27;20301;-75
2022/09/09 04:13:52;;;;;;;2.30;1.40;;;17.00;42.70;;;;;;10628567;27;20641;-74
2022/09/09 04:18:57;;;;;;;1.97;1.40;;;17.00;42.80;;;;;;10628626;27;20230;-74
2022/09/09 04:24:00;;;;;;;2.13;1.50;;;17.00;42.90;;;;;;10627425;27;20234;-75
2022/09/09 04:29:04;;;;;;;1.23;1.13;;;17.00;42.70;;;;;;10626103;27;20237;-75
2022/09/09 04:34:09;;;;;;;1.50;1.40;;;17.00;42.70;;;;;;10622053;27;20230;-74
2022/09/09 04:45:37;;;;;;;1.87;1.53;;;16.90;42.90;;;;;;10622372;27;20246;-74
2022/09/09 04:50:41;;;;;;;1.70;1.60;;;16.90;42.50;;;;;;10623079;27;20228;-74
2022/09/09 04:55:44;;;;;;;3.80;1.70;;;16.80;42.80;;;;;;10623281;27;20310;-75
2022/09/09 05:00:47;;;;;;;2.10;1.53;;;16.80;42.90;;;;;;10623650;27;20240;-74
2022/09/09 05:05:53;;;;;;;1.50;1.40;;;16.80;43.00;;;;;;10621818;27;20245;-75
2022/09/09 05:10:56;;;;;;;1.30;1.20;;;16.80;43.40;;;;;;10621282;27;20222;-75
2022/09/09 05:15:59;;;;;;;2.43;1.60;;;16.80;43.10;;;;;;10620316;27;20230;-75
2022/09/09 05:21:04;;;;;;;3.50;1.70;;;16.70;43.00;;;;;;10619954;27;20308;-74
2022/09/09 05:26:12;;;;;;;2.10;1.70;;;16.70;43.40;;;;;;10621017;27;20293;-75
2022/09/09 05:31:20;;;;;;;2.20;1.63;;;16.70;43.60;;;;;;10622261;27;20237;-75
2022/09/09 05:36:25;;;;;;;1.87;1.50;;;16.60;43.90;;;;;;10620952;27;20257;-75
2022/09/09 05:41:28;;;;;;;4.43;1.80;;;16.60;44.50;;;;;;10620667;27;20271;-75
2022/09/09 05:46:31;;;;;;;1.90;1.40;;;16.70;44.50;;;;;;10620797;27;20725;-76
2022/09/09 05:51:36;;;;;;;2.07;1.70;;;16.70;44.40;;;;;;10596068;27;20313;-78
2022/09/09 05:56:39;;;;;;;1.93;1.50;;;16.80;45.10;;;;;;10581206;28;20235;-78
2022/09/09 06:01:42;;;;;;;2.83;1.63;;;16.80;44.70;;;;;;10584348;28;20283;-77
2022/09/09 06:06:48;;;;;;;1.90;1.80;;;16.90;44.80;;;;;;10585235;28;20227;-78
2022/09/09 06:11:51;;;;;;;2.33;2.13;;;17.00;45.40;;;;;;10563969;28;20225;-77
2022/09/09 06:16:56;;;;;;;2.53;2.33;;;17.00;45.10;;;;;;10568300;28;20283;-78
2022/09/09 06:22:01;;;;;;;2.30;2.10;;;17.10;45.20;;;;;;10563612;28;20231;-76
2022/09/09 06:27:05;;;;;;;5.27;2.17;;;17.20;45.60;;;;;;10573845;27;20250;-79
2022/09/09 06:32:08;;;;;;;2.03;1.83;;;17.20;45.40;;;;;;10555084;28;20238;-80
2022/09/09 06:37:14;;;;;;;2.60;2.33;;;17.30;45.20;;;;;;10536634;28;20242;-78
2022/09/09 06:42:18;;;;;;;1.87;1.60;;;17.30;45.90;;;;;;10556357;28;20231;-79
2022/09/09 06:47:22;;;;;;;2.73;1.80;;;17.30;45.80;;;;;;10556390;28;20238;-76
2022/09/09 06:52:28;;;;;;;2.47;1.90;;;17.30;46.30;;;;;;10563449;28;20245;-77
2022/09/09 06:57:31;;;;;;;2.10;1.90;;;17.30;46.30;;;;;;10558815;28;20707;-78
2022/09/09 07:02:40;;;;;;;2.40;1.97;;;17.30;46.10;;;;;;10545690;28;20255;-80
2022/09/09 07:07:45;;;;;;;2.30;2.10;;;17.40;46.40;;;;;;10552881;28;20309;-79
2022/09/09 07:12:52;;;;;;;2.53;1.80;;;17.40;46.50;;;;;;10555666;28;20829;-78
2022/09/09 07:17:56;;;;;;;1.90;1.80;;;17.40;47.30;;;;;;10560871;28;20572;-81
2022/09/09 07:23:01;;;;;;;2.67;2.10;;;17.40;46.50;;;;;;10536215;28;20292;-76
2022/09/09 07:28:05;;;;;;;3.73;1.80;;;17.50;47.60;;;;;;10528577;28;20276;-77
2022/09/09 07:33:09;;;;;;;2.50;2.00;;;17.50;46.50;;;;;;10530101;28;20235;-76
2022/09/09 07:38:15;;;;;;;2.07;1.87;;;17.50;46.70;;;;;;10546699;28;20279;-75
2022/09/09 07:43:18;;;;;;;2.73;1.60;;;17.60;47.60;;;;;;10573471;28;20643;-78
2022/09/09 07:48:21;;;;;;;2.33;2.13;;;17.70;46.90;;;;;;10569417;28;20254;-75
2022/09/09 07:53:26;;;;;;;2.00;1.80;;;17.70;47.30;;;;;;10570071;28;20313;-74
2022/09/09 07:58:31;;;;;;;2.93;2.23;;;17.80;48.10;;;;;;10574094;28;20230;-80
2022/09/09 08:03:41;;;;;;;2.37;1.73;;;17.80;48.70;;;;;;10542034;28;20231;-78
2022/09/09 08:08:51;;;;;;;2.80;1.90;;;17.90;48.20;;;;;;10539033;28;20243;-77
2022/09/09 08:13:55;;;;;;;2.60;2.40;;;18.00;49.60;;;;;;10540222;28;20253;-79
2022/09/09 08:19:05;;;;;;;2.57;2.30;;;18.10;48.30;;;;;;10537893;28;20318;-77
2022/09/09 08:24:11;;;;;;;2.97;2.50;;;18.10;48.30;;;;;;10539710;28;20236;-78
2022/09/09 08:29:14;;;;;;;3.27;2.40;;;18.20;49.00;;;;;;10540894;28;20276;-78
2022/09/09 08:34:20;;;;;;;2.97;2.17;;;18.30;48.80;;;;;;10539988;28;20239;-78
2022/09/09 08:39:24;;;;;;;2.13;1.93;;;18.30;49.00;;;;;;10571537;28;20310;-76
2022/09/09 08:44:40;;;;;;;2.37;2.17;;;18.40;50.00;;;;;;10575911;28;20235;-76
2022/09/09 08:50:14;;;;;;;1.50;1.40;;;18.50;51.10;;;;;;10575845;28;20231;-78
2022/09/09 08:55:26;;;;;;;1.67;1.47;;;18.70;50.70;;;;;;10581217;28;20219;-78
2022/09/09 09:00:36;;;;;;;2.23;1.73;;;18.80;51.00;;;;;;10585897;28;20817;-78
2022/09/09 09:05:48;;;;;;;1.60;1.47;;;18.90;50.80;;;;;;10582648;28;20231;-80
2022/09/09 09:10:56;;;;;;;2.27;1.50;;;19.10;50.90;;;;;;10583063;28;20233;-79
2022/09/09 09:16:07;;;;;;;4.63;2.27;;;19.20;50.70;;;;;;10583817;28;20321;-79
2022/09/09 09:21:18;;;;;;;2.73;2.13;;;19.40;50.50;;;;;;10583285;28;20344;-79
2022/09/09 09:26:27;;;;;;;3.73;2.50;;;19.60;50.40;;;;;;10581599;28;21238;-79
2022/09/09 09:31:30;;;;;;;3.87;2.20;;;19.80;50.50;;;;;;10581395;28;20244;-77
2022/09/09 09:36:41;;;;;;;2.80;1.90;;;19.90;49.40;;;;;;10578449;28;20265;-79
2022/09/09 09:41:46;;;;;;;2.43;2.03;;;20.10;49.50;;;;;;10578143;28;20227;-78
2022/09/09 09:46:49;;;;;;;2.37;2.10;;;20.30;49.00;;;;;;10574858;28;20227;-79
2022/09/09 09:51:52;;;;;;;4.10;1.97;;;20.40;49.10;;;;;;10576611;28;20940;-77
2022/09/09 09:56:57;;;;;;;1.60;1.40;;;20.50;49.20;;;;;;10576062;28;20227;-78
2022/09/09 10:02:18;;;;;;;1.57;1.33;;;20.60;49.20;;;;;;10572823;28;20218;-79
2022/09/09 10:07:23;;;;;;;1.60;1.13;;;20.70;47.80;;;;;;10573045;28;21732;-77
2022/09/09 10:12:37;;;;;;;1.10;1.00;;;20.80;47.80;;;;;;10572914;28;20233;-79
2022/09/09 10:18:01;;;;;;;1.20;1.10;;;21.00;46.70;;;;;;10573362;28;20746;-79
2022/09/09 10:23:15;;;;;;;1.37;1.00;;;21.10;47.90;;;;;;10570812;28;20874;-78
2022/09/09 10:28:44;;;;;;;0.70;0.70;;;21.30;47.00;;;;;;10564853;28;20230;-78
2022/09/09 10:33:57;;;;;;;1.50;1.20;;;21.50;46.20;;;;;;10556724;27;20238;-79
2022/09/09 10:39:04;;;;;;;1.40;1.10;;;21.60;46.30;;;;;;10531010;28;20242;-78
2022/09/09 10:44:21;;;;;;;1.20;1.00;;;21.70;46.30;;;;;;10534584;28;20231;-78
2022/09/09 10:49:39;;;;;;;2.80;1.17;;;21.80;44.70;;;;;;10534326;28;20260;-79
2022/09/09 10:54:51;;;;;;;0.93;0.90;;;22.00;43.30;;;;;;10533351;28;20288;-77
2022/09/09 11:00:00;;;;;;;2.13;1.10;;;22.20;45.00;;;;;;10536503;28;20750;-77
2022/09/09 11:05:08;;;;;;;1.33;1.10;;;22.30;44.30;;;;;;10541165;28;20218;-77
2022/09/09 11:10:23;;;;;;;1.77;1.20;;;22.40;44.30;;;;;;10595135;28;20765;-78
2022/09/09 11:15:32;;;;;;;1.20;1.10;;;22.50;43.50;;;;;;10571006;28;20279;-77
2022/09/09 11:20:36;;;;;;;1.33;1.03;;;22.60;43.70;;;;;;10568456;28;20218;-77
2022/09/09 11:25:44;;;;;;;1.40;1.10;;;22.60;44.20;;;;;;10561986;28;20219;-77
2022/09/09 11:30:58;;;;;;;1.30;1.20;;;22.60;43.20;;;;;;10569474;28;20758;-78
2022/09/09 11:36:17;;;;;;;2.30;1.20;;;22.60;42.30;;;;;;10564979;28;20230;-78
2022/09/09 11:41:22;;;;;;;2.83;1.30;;;22.60;43.00;;;;;;10566668;28;20264;-77
2022/09/09 11:46:38;;;;;;;1.57;1.10;;;22.60;43.20;;;;;;10546470;28;20260;-77
2022/09/09 11:51:42;;;;;;;1.40;1.30;;;22.70;43.20;;;;;;10549834;28;20238;-78
2022/09/09 11:56:46;;;;;;;1.40;1.27;;;22.70;43.70;;;;;;10552710;28;20277;-77
2022/09/09 12:01:57;;;;;;;1.83;1.30;;;22.70;43.20;;;;;;10528525;28;20269;-76
2022/09/09 12:07:03;;;;;;;1.63;1.37;;;22.80;42.90;;;;;;10531818;28;20277;-77
2022/09/09 12:12:09;;;;;;;1.27;1.17;;;22.80;43.00;;;;;;10558451;28;20234;-78
2022/09/09 12:17:21;;;;;;;2.00;1.40;;;22.90;43.50;;;;;;10563769;28;20235;-78
2022/09/09 12:22:36;;;;;;;2.10;1.50;;;22.90;42.90;;;;;;10570784;28;20227;-77
2022/09/09 12:27:48;;;;;;;1.53;1.40;;;23.00;42.60;;;;;;10564637;28;20608;-77
2022/09/09 12:33:03;;;;;;;1.30;1.20;;;23.00;42.60;;;;;;10570631;28;20231;-77
2022/09/09 12:38:11;;;;;;;1.97;1.50;;;23.00;42.40;;;;;;10576551;27;20714;-76
2022/09/09 12:43:21;;;;;;;2.97;1.30;;;23.10;42.70;;;;;;10556228;28;20490;-76
2022/09/09 12:48:33;;;;;;;1.27;1.17;;;23.20;42.40;;;;;;10563026;28;20340;-76
2022/09/09 12:53:38;;;;;;;1.20;1.10;;;23.20;42.70;;;;;;10570750;28;20231;-76
2022/09/09 12:58:47;;;;;;;5.30;1.30;;;23.40;42.40;;;;;;10555789;28;20231;-76
2022/09/09 13:03:52;;;;;;;3.27;1.30;;;23.50;41.60;;;;;;10580552;27;20256;-78
2022/09/09 13:08:58;;;;;;;0.90;0.90;;;23.60;41.10;;;;;;10580955;28;20287;-79
2022/09/09 13:14:02;;;;;;;1.53;0.90;;;23.70;41.20;;;;;;10582207;28;20265;-76
2022/09/09 13:19:11;;;;;;;1.53;0.93;;;23.80;41.00;;;;;;10582452;28;20649;-78
2022/09/09 13:24:29;;;;;;;3.43;1.17;;;23.90;39.90;;;;;;10581831;28;20242;-77
2022/09/09 13:29:34;;;;;;;0.90;0.90;;;23.90;39.90;;;;;;10580123;28;20878;-78
2022/09/09 13:34:38;;;;;;;1.17;1.07;;;23.90;40.30;;;;;;10582323;28;20226;-78
2022/09/09 13:39:41;;;;;;;2.30;1.00;;;23.90;39.90;;;;;;10581351;28;20250;-77
2022/09/09 13:44:47;;;;;;;2.30;0.87;;;23.90;40.50;;;;;;10581897;28;20314;-79
2022/09/09 13:49:52;;;;;;;2.23;0.97;;;23.90;39.20;;;;;;10579684;28;20640;-75
2022/09/09 13:54:55;;;;;;;2.43;0.80;;;23.90;39.90;;;;;;10579028;28;20234;-76
2022/09/09 14:00:01;;;;;;;2.13;0.90;;;23.90;39.90;;;;;;10577179;28;20242;-76
2022/09/09 14:05:10;;;;;;;2.43;1.00;;;23.90;39.90;;;;;;10575103;28;20241;-78
2022/09/09 14:10:14;;;;;;;2.20;1.20;;;23.90;39.10;;;;;;10537545;28;20293;-77
2022/09/09 14:15:17;;;;;;;1.67;1.20;;;23.80;39.00;;;;;;10537067;28;20265;-79
2022/09/09 14:20:22;;;;;;;1.57;1.00;;;23.70;39.70;;;;;;10535655;28;20305;-78
2022/09/09 14:25:25;;;;;;;1.50;0.77;;;23.60;38.90;;;;;;10534315;28;20223;-78
2022/09/09 14:30:28;;;;;;;1.80;1.00;;;23.70;39.80;;;;;;10536029;28;20226;-78
2022/09/09 14:35:33;;;;;;;2.23;0.90;;;23.80;39.10;;;;;;10534893;28;20728;-78
2022/09/09 14:40:38;;;;;;;2.60;0.90;;;23.90;38.00;;;;;;10535643;28;20224;-78
2022/09/09 14:45:43;;;;;;;1.40;0.90;;;23.80;38.00;;;;;;10532894;28;20338;-78
2022/09/09 14:50:49;;;;;;;1.80;1.00;;;23.80;38.20;;;;;;10533215;28;20238;-78
2022/09/09 14:55:52;;;;;;;2.07;1.10;;;23.60;37.80;;;;;;10536861;28;20638;-78
2022/09/09 15:00:55;;;;;;;1.03;0.80;;;23.50;38.30;;;;;;10534221;28;20227;-78
2022/09/09 15:06:05;;;;;;;0.93;0.90;;;23.50;38.60;;;;;;10535184;28;20302;-79
2022/09/09 15:11:09;;;;;;;2.17;1.13;;;23.40;38.30;;;;;;10535207;28;20227;-79
2022/09/09 15:16:14;;;;;;;1.73;1.20;;;23.40;38.70;;;;;;10534728;28;20304;-78
2022/09/09 15:21:21;;;;;;;1.40;0.80;;;23.40;38.10;;;;;;10534516;28;20262;-78
2022/09/09 15:26:24;;;;;;;1.87;1.00;;;23.30;37.90;;;;;;10567435;28;20224;-78
2022/09/09 15:31:30;;;;;;;1.77;1.07;;;23.30;38.50;;;;;;10576183;28;20309;-78
2022/09/09 15:36:36;;;;;;;1.83;1.10;;;23.30;37.80;;;;;;10575644;28;20268;-78
2022/09/09 15:41:39;;;;;;;3.23;0.77;;;23.20;37.40;;;;;;10575816;28;20222;-78
2022/09/09 15:46:44;;;;;;;1.67;0.90;;;23.00;37.50;;;;;;10576787;28;20739;-79
2022/09/09 15:51:53;;;;;;;2.00;0.60;;;22.90;38.20;;;;;;10585306;28;20310;-78
2022/09/09 15:56:58;;;;;;;1.00;0.70;;;22.70;36.70;;;;;;10582604;28;20624;-77
2022/09/09 16:02:01;;;;;;;0.70;0.70;;;22.60;37.10;;;;;;10582426;28;20735;-78
2022/09/09 16:07:07;;;;;;;1.23;0.70;;;22.40;37.30;;;;;;10585801;28;20219;-78
2022/09/09 16:12:12;;;;;;;0.80;0.70;;;22.20;37.10;;;;;;10586315;28;20265;-78
2022/09/09 16:17:16;;;;;;;3.07;1.00;;;22.10;37.30;;;;;;10586989;28;20234;-78
2022/09/09 16:22:20;;;;;;;3.40;1.30;;;22.00;37.60;;;;;;10586181;28;20229;-77
2022/09/09 16:27:24;;;;;;;1.30;0.80;;;21.90;36.60;;;;;;10582942;28;20250;-78
2022/09/09 16:32:28;;;;;;;1.00;0.70;;;21.90;37.10;;;;;;10573706;28;20230;-77
2022/09/09 16:37:33;;;;;;;2.53;1.17;;;21.90;37.00;;;;;;10573774;28;20699;-77
2022/09/09 16:42:37;;;;;;;2.57;0.80;;;21.80;36.70;;;;;;10580204;28;20235;-78
2022/09/09 16:47:41;;;;;;;0.80;0.80;;;21.80;37.20;;;;;;10569125;28;20292;-78
2022/09/09 16:52:46;;;;;;;0.80;0.80;;;21.70;37.00;;;;;;10565439;28;20908;-78
2022/09/09 16:57:49;;;;;;;1.40;1.10;;;21.60;36.80;;;;;;10566131;28;21224;-75
2022/09/09 17:02:52;;;;;;;1.40;0.90;;;21.60;37.40;;;;;;10572127;28;20323;-76
2022/09/09 17:07:57;;;;;;;0.90;0.87;;;21.50;37.30;;;;;;10593975;27;20254;-78
2022/09/09 17:13:01;;;;;;;1.07;0.90;;;21.40;37.00;;;;;;10574560;28;20243;-77
2022/09/09 17:18:04;;;;;;;2.00;1.00;;;21.30;37.60;;;;;;10564059;28;20220;-79
2022/09/09 17:23:10;;;;;;;2.93;1.10;;;21.20;37.60;;;;;;10552816;28;20220;-77
2022/09/09 17:28:15;;;;;;;1.10;1.00;;;21.10;37.50;;;;;;10560219;28;20264;-78
2022/09/09 17:33:20;;;;;;;8.30;1.43;;;21.00;37.40;;;;;;10561624;28;20258;-77
2022/09/09 17:38:26;;;;;;;1.93;1.30;;;21.00;37.40;;;;;;10554448;28;20232;-80
2022/09/09 17:43:30;;;;;;;1.40;1.20;;;20.90;37.90;;;;;;10568532;28;20266;-80
2022/09/09 17:48:34;;;;;;;2.67;1.30;;;20.90;38.90;;;;;;10575026;28;20722;-80
2022/09/09 17:53:41;;;;;;;2.17;1.10;;;20.80;38.70;;;;;;10564831;28;20250;-78
2022/09/09 17:58:47;;;;;;;1.30;1.17;;;20.70;39.20;;;;;;10568113;28;20631;-80
2022/09/09 18:03:51;;;;;;;3.77;1.30;;;20.70;39.50;;;;;;10568373;28;20866;-78
2022/09/09 18:08:58;;;;;;;1.50;1.13;;;20.70;39.90;;;;;;10569901;28;20222;-80
2022/09/09 18:14:03;;;;;;;2.30;1.10;;;20.70;40.40;;;;;;10573560;28;20235;-78
2022/09/09 18:19:08;;;;;;;3.70;1.27;;;20.70;40.30;;;;;;10569980;28;20315;-82
2022/09/09 18:24:14;;;;;;;1.37;1.07;;;20.80;40.20;;;;;;10570695;28;20223;-83
2022/09/09 18:29:20;;;;;;;3.07;1.70;;;20.70;40.30;;;;;;10573571;27;20219;-83
2022/09/09 18:34:27;;;;;;;1.73;1.30;;;20.70;40.60;;;;;;10569197;28;20230;-83
2022/09/09 18:39:32;;;;;;;1.30;1.13;;;20.60;40.40;;;;;;10567397;28;20249;-80
2022/09/09 18:44:35;;;;;;;1.73;1.23;;;20.60;40.80;;;;;;10550151;28;20321;-78
2022/09/09 18:49:39;;;;;;;1.30;1.20;;;20.60;40.50;;;;;;10557736;28;20291;-77
2022/09/09 18:54:44;;;;;;;1.80;1.30;;;20.60;40.70;;;;;;10557381;28;20234;-80
2022/09/09 18:59:48;;;;;;;1.30;1.10;;;20.60;41.20;;;;;;10559405;28;20223;-79
2022/09/09 19:04:52;;;;;;;1.43;1.23;;;20.50;40.50;;;;;;10555107;28;20238;-77
2022/09/09 19:09:57;;;;;;;1.80;1.70;;;20.60;41.00;;;;;;10559780;28;20227;-77
2022/09/09 19:15:00;;;;;;;1.90;1.80;;;20.50;40.90;;;;;;10558963;28;20245;-77
2022/09/09 19:20:07;;;;;;;3.10;1.73;;;20.50;40.70;;;;;;10551201;28;20698;-77
2022/09/09 19:25:12;;;;;;;1.63;1.47;;;20.30;40.70;;;;;;10558164;27;20227;-77
2022/09/09 19:30:15;;;;;;;3.27;1.80;;;20.20;40.80;;;;;;10562789;28;20233;-77
2022/09/09 19:35:19;;;;;;;2.10;1.23;;;19.90;40.50;;;;;;10566360;28;20745;-77
2022/09/09 19:40:24;;;;;;;3.63;1.60;;;19.80;41.10;;;;;;10568401;27;20231;-77
2022/09/09 19:45:27;;;;;;;1.83;1.37;;;19.70;41.60;;;;;;10568159;27;20931;-76
2022/09/09 19:56:54;;;;;;;2.17;1.00;;;19.50;41.00;;;;;;10573253;28;20796;-79
2022/09/09 20:01:57;;;;;;;1.73;1.00;;;19.40;41.20;;;;;;10576826;28;21212;-80
2022/09/09 20:07:01;;;;;;;1.93;1.00;;;19.30;41.20;;;;;;10576313;28;21133;-81
2022/09/09 20:12:07;;;;;;;2.10;1.13;;;19.30;41.40;;;;;;10584436;28;20218;-84
2022/09/09 20:17:10;;;;;;;1.43;1.30;;;19.30;42.10;;;;;;10584756;27;20223;-81
2022/09/09 20:22:14;;;;;;;2.33;1.10;;;19.30;41.30;;;;;;10584206;28;20245;-81
2022/09/09 20:27:18;;;;;;;1.13;1.03;;;19.20;41.20;;;;;;10571415;27;20215;-78
2022/09/09 20:32:21;;;;;;;1.60;0.90;;;19.20;41.80;;;;;;10566257;28;20236;-79
2022/09/09 20:37:24;;;;;;;1.83;1.00;;;19.10;41.40;;;;;;10572430;28;20223;-78
2022/09/09 20:42:29;;;;;;;1.73;1.10;;;19.10;41.80;;;;;;10568583;27;20291;-77
2022/09/09 20:47:32;;;;;;;1.10;0.90;;;19.10;42.30;;;;;;10565403;28;20223;-78
2022/09/09 20:52:36;;;;;;;2.07;0.93;;;19.10;41.90;;;;;;10578499;28;21141;-80
2022/09/09 20:57:40;;;;;;;2.80;0.90;;;19.10;42.10;;;;;;10575010;27;20856;-80
2022/09/09 21:02:46;;;;;;;1.70;1.00;;;19.10;42.50;;;;;;10564714;28;20235;-78
2022/09/09 21:07:52;;;;;;;1.27;0.90;;;19.20;42.60;;;;;;10569262;28;20227;-78
2022/09/09 21:12:57;;;;;;;1.40;1.10;;;19.20;42.60;;;;;;10569396;28;20231;-77
2022/09/09 21:18:25;;;;;;;1.17;1.00;;;19.10;42.30;;;;;;10561272;28;20776;-79
2022/09/09 21:23:30;;;;;;;2.13;1.20;;;19.00;42.50;;;;;;10560482;28;20223;-79
2022/09/09 21:28:35;;;;;;;2.07;1.40;;;19.00;42.10;;;;;;10568474;28;20234;-79
2022/09/09 21:33:38;;;;;;;2.07;1.43;;;19.00;42.50;;;;;;10564255;27;20779;-77
2022/09/09 21:38:42;;;;;;;1.97;1.60;;;18.90;41.90;;;;;;10561448;27;20230;-77
2022/09/09 21:43:52;;;;;;;1.60;1.40;;;18.80;41.80;;;;;;10562638;27;20266;-77
2022/09/09 21:48:56;;;;;;;1.87;1.50;;;18.60;42.50;;;;;;10568026;27;20687;-77
2022/09/09 21:53:59;;;;;;;1.63;1.40;;;18.50;42.00;;;;;;10557325;27;20220;-77
2022/09/09 21:59:07;;;;;;;1.90;1.50;;;18.40;42.10;;;;;;10560201;27;20782;-78
2022/09/09 22:04:12;;;;;;;1.70;1.13;;;18.40;43.20;;;;;;10563009;28;20223;-79
2022/09/09 22:09:15;;;;;;;2.83;1.30;;;18.40;43.00;;;;;;10572297;28;20220;-79
2022/09/09 22:14:19;;;;;;;2.00;1.10;;;18.40;42.50;;;;;;10579446;28;20222;-79
2022/09/09 22:19:22;;;;;;;1.83;1.10;;;18.40;42.70;;;;;;10564276;28;20226;-79
2022/09/09 22:24:27;;;;;;;1.43;1.33;;;18.40;42.40;;;;;;10581147;28;20230;-79
2022/09/09 22:29:32;;;;;;;3.43;1.23;;;18.40;42.80;;;;;;10573205;28;20274;-79
2022/09/09 22:34:35;;;;;;;1.27;1.10;;;18.30;42.70;;;;;;10577599;28;20231;-79
2022/09/09 22:39:38;;;;;;;2.53;1.13;;;18.20;42.50;;;;;;10571847;28;20230;-79
2022/09/09 22:44:44;;;;;;;1.30;1.20;;;18.20;42.60;;;;;;10579385;27;21034;-80
2022/09/09 22:49:47;;;;;;;1.07;1.00;;;18.20;43.20;;;;;;10552667;28;20723;-79
2022/09/09 22:54:50;;;;;;;1.00;0.90;;;18.10;42.80;;;;;;10571954;28;20219;-79
2022/09/09 23:00:00;;;;;;;1.43;1.10;;;18.10;42.90;;;;;;10568038;28;20229;-78
2022/09/09 23:05:07;;;;;;;2.13;1.10;;;18.00;43.60;;;;;;10578352;27;20238;-79
2022/09/09 23:10:11;;;;;;;1.10;0.97;;;18.00;43.60;;;;;;10573331;28;20222;-79
2022/09/09 23:15:16;;;;;;;1.50;1.00;;;18.00;43.30;;;;;;10579331;28;20279;-79
2022/09/09 23:20:21;;;;;;;0.97;0.80;;;18.00;43.30;;;;;;10557288;28;20281;-79
2022/09/09 23:25:24;;;;;;;3.20;1.40;;;18.00;43.10;;;;;;10561885;28;20604;-79
2022/09/09 23:30:29;;;;;;;2.87;1.20;;;17.90;42.90;;;;;;10561727;28;20590;-78
2022/09/09 23:35:33;;;;;;;3.30;1.00;;;17.80;43.30;;;;;;10569653;28;20222;-78
2022/09/09 23:40:36;;;;;;;1.63;1.03;;;17.70;43.40;;;;;;10556559;28;20230;-79
2022/09/09 23:45:41;;;;;;;1.57;1.20;;;17.60;44.00;;;;;;10567014;28;20227;-79
2022/09/09 23:50:44;;;;;;;1.33;1.10;;;17.50;44.00;;;;;;10559578;28;20234;-79
2022/09/09 23:55:47;;;;;;;1.47;0.90;;;17.40;43.80;;;;;;10562811;28;20235;-79
